sensor_id;sensor_type;location;lat;lon;timestamp;P1;durP1;ratioP1;P2;durP2;ratioP2
67344;SDS011;54230;52.402;6.276;2023-01-01T00:00:00;30.7;;;15.8;;
67344;SDS011;54230;52.402;6.276;2023-01-01T00:05:00;31.6;;;14.1;;
67344;SDS011;54230;52.402;6.276;2023-01-01T00:10:00;26.2;;;12.5;;
67344;SDS011;54230;52.402;6.276;2023-01-01T00:15:00;23.1;;;10.7;;
67344;SDS011;54230;52.402;6.276;2023-01-01T00:20:00;24.5;;;10.6;;
67344;SDS011;54230;52.402;6.276;2023-01-01T00:25:00;22.1;;;10.2;;
67344;SDS011;54230;52.402;6.276;2023-01-01T00:30:00;21.5;;;9.3;;
67344;SDS011;54230;52.402;6.276;2023-01-01T00:35:00;22.0;;;10.0;;
67344;SDS011;54230;52.402;6.276;2023-01-01T00:40:00;23.2;;;11.0;;
67344;SDS011;54230;52.402;6.276;2023-01-01T00:45:00;27.5;;;12.0;;
67344;SDS011;54230;52.402;6.276;2023-01-01T00:50:00;25.6;;;12.3;;
67344;SDS011;54230;52.402;6.276;2023-01-01T00:55:00;25.3;;;11.6;;
67344;SDS011;54230;52.402;6.276;2023-01-01T01:00:00;20.0;;;9.7;;
67344;SDS011;54230;52.402;6.276;2023-01-01T01:05:00;22.4;;;11.6;;
67344;SDS011;54230;52.402;6.276;2023-01-01T01:10:00;28.6;;;12.1;;
67344;SDS011;54230;52.402;6.276;2023-01-01T01:15:00;23.5;;;10.6;;
67344;SDS011;54230;52.402;6.276;2023-01-01T01:20:00;23.1;;;10.5;;
67344;SDS011;54230;52.402;6.276;2023-01-01T01:25:00;24.5;;;8.4;;
67344;SDS011;54230;52.402;6.276;2023-01-01T01:30:00;21.8;;;8.5;;
67344;SDS011;54230;52.402;6.276;2023-01-01T01:35:00;18.0;;;7.4;;
67344;SDS011;54230;52.402;6.276;2023-01-01T01:40:00;17.7;;;7.2;;
67344;SDS011;54230;52.402;6.276;2023-01-01T01:45:01;17.6;;;6.6;;
67344;SDS011;54230;52.402;6.276;2023-01-01T01:50:02;21.3;;;6.0;;
67344;SDS011;54230;52.402;6.276;2023-01-01T01:55:00;17.8;;;6.3;;
67344;SDS011;54230;52.402;6.276;2023-01-01T02:00:00;12.9;;;4.5;;
67344;SDS011;54230;52.402;6.276;2023-01-01T02:05:00;14.2;;;4.4;;
67344;SDS011;54230;52.402;6.276;2023-01-01T02:10:00;13.4;;;4.5;;
67344;SDS011;54230;52.402;6.276;2023-01-01T02:15:00;13.9;;;4.2;;
67344;SDS011;54230;52.402;6.276;2023-01-01T02:20:06;10.9;;;3.8;;
67344;SDS011;54230;52.402;6.276;2023-01-01T02:25:03;8.9;;;3.5;;
67344;SDS011;54230;52.402;6.276;2023-01-01T02:30:01;12.1;;;3.4;;
67344;SDS011;54230;52.402;6.276;2023-01-01T02:35:00;9.9;;;3.4;;
67344;SDS011;54230;52.402;6.276;2023-01-01T02:40:00;10.6;;;3.3;;
67344;SDS011;54230;52.402;6.276;2023-01-01T02:45:00;10.5;;;2.9;;
67344;SDS011;54230;52.402;6.276;2023-01-01T02:50:02;8.6;;;2.7;;
67344;SDS011;54230;52.402;6.276;2023-01-01T02:55:00;9.3;;;2.7;;
67344;SDS011;54230;52.402;6.276;2023-01-01T03:00:01;11.7;;;2.9;;
67344;SDS011;54230;52.402;6.276;2023-01-01T03:05:02;8.6;;;2.5;;
67344;SDS011;54230;52.402;6.276;2023-01-01T03:10:02;8.5;;;2.6;;
67344;SDS011;54230;52.402;6.276;2023-01-01T03:15:01;6.3;;;2.2;;
67344;SDS011;54230;52.402;6.276;2023-01-01T03:20:01;9.7;;;2.3;;
67344;SDS011;54230;52.402;6.276;2023-01-01T03:25:02;8.7;;;2.6;;
67344;SDS011;54230;52.402;6.276;2023-01-01T03:30:03;7.5;;;2.4;;
67344;SDS011;54230;52.402;6.276;2023-01-01T03:35:00;7.2;;;2.0;;
67344;SDS011;54230;52.402;6.276;2023-01-01T03:40:00;8.4;;;2.0;;
67344;SDS011;54230;52.402;6.276;2023-01-01T03:45:00;6.1;;;1.8;;
67344;SDS011;54230;52.402;6.276;2023-01-01T03:50:00;11.1;;;2.4;;
67344;SDS011;54230;52.402;6.276;2023-01-01T03:55:01;7.1;;;2.0;;
67344;SDS011;54230;52.402;6.276;2023-01-01T04:00:02;6.8;;;2.3;;
67344;SDS011;54230;52.402;6.276;2023-01-01T04:05:00;7.1;;;1.9;;
67344;SDS011;54230;52.402;6.276;2023-01-01T04:10:00;9.0;;;2.5;;
67344;SDS011;54230;52.402;6.276;2023-01-01T04:15:00;7.0;;;1.7;;
67344;SDS011;54230;52.402;6.276;2023-01-01T04:20:00;4.4;;;1.8;;
67344;SDS011;54230;52.402;6.276;2023-01-01T04:25:00;8.2;;;2.4;;
67344;SDS011;54230;52.402;6.276;2023-01-01T04:30:00;7.0;;;1.9;;
67344;SDS011;54230;52.402;6.276;2023-01-01T04:35:00;5.2;;;1.8;;
67344;SDS011;54230;52.402;6.276;2023-01-01T04:40:00;7.1;;;1.9;;
67344;SDS011;54230;52.402;6.276;2023-01-01T04:45:00;6.7;;;2.2;;
67344;SDS011;54230;52.402;6.276;2023-01-01T04:50:00;8.4;;;1.8;;
67344;SDS011;54230;52.402;6.276;2023-01-01T04:55:00;5.8;;;1.5;;
67344;SDS011;54230;52.402;6.276;2023-01-01T05:00:00;4.2;;;1.4;;
67344;SDS011;54230;52.402;6.276;2023-01-01T05:05:00;4.9;;;1.9;;
67344;SDS011;54230;52.402;6.276;2023-01-01T05:10:00;6.2;;;1.8;;
67344;SDS011;54230;52.402;6.276;2023-01-01T05:15:00;6.2;;;2.0;;
67344;SDS011;54230;52.402;6.276;2023-01-01T05:20:00;6.5;;;1.8;;
67344;SDS011;54230;52.402;6.276;2023-01-01T05:25:00;5.9;;;1.7;;
67344;SDS011;54230;52.402;6.276;2023-01-01T05:30:00;9.5;;;2.0;;
67344;SDS011;54230;52.402;6.276;2023-01-01T05:35:00;9.7;;;1.9;;
67344;SDS011;54230;52.402;6.276;2023-01-01T05:40:00;10.3;;;2.2;;
67344;SDS011;54230;52.402;6.276;2023-01-01T05:45:00;6.6;;;2.0;;
67344;SDS011;54230;52.402;6.276;2023-01-01T05:50:00;9.6;;;2.3;;
67344;SDS011;54230;52.402;6.276;2023-01-01T05:55:00;8.0;;;1.9;;
67344;SDS011;54230;52.402;6.276;2023-01-01T06:00:00;6.3;;;2.0;;
67344;SDS011;54230;52.402;6.276;2023-01-01T06:05:00;5.4;;;1.7;;
67344;SDS011;54230;52.402;6.276;2023-01-01T06:10:00;6.6;;;1.8;;
67344;SDS011;54230;52.402;6.276;2023-01-01T06:15:00;4.7;;;1.7;;
67344;SDS011;54230;52.402;6.276;2023-01-01T06:20:00;7.0;;;1.6;;
67344;SDS011;54230;52.402;6.276;2023-01-01T06:25:00;8.4;;;1.5;;
67344;SDS011;54230;52.402;6.276;2023-01-01T06:30:00;6.1;;;1.6;;
67344;SDS011;54230;52.402;6.276;2023-01-01T06:35:00;6.6;;;1.6;;
67344;SDS011;54230;52.402;6.276;2023-01-01T06:40:00;6.7;;;1.5;;
67344;SDS011;54230;52.402;6.276;2023-01-01T06:45:00;10.6;;;1.9;;
67344;SDS011;54230;52.402;6.276;2023-01-01T06:50:00;7.5;;;1.5;;
67344;SDS011;54230;52.402;6.276;2023-01-01T06:55:00;6.0;;;1.5;;
67344;SDS011;54230;52.402;6.276;2023-01-01T07:00:00;5.9;;;1.3;;
67344;SDS011;54230;52.402;6.276;2023-01-01T07:05:00;6.0;;;1.3;;
67344;SDS011;54230;52.402;6.276;2023-01-01T07:10:00;3.1;;;1.0;;
67344;SDS011;54230;52.402;6.276;2023-01-01T07:15:00;5.4;;;1.6;;
67344;SDS011;54230;52.402;6.276;2023-01-01T07:20:00;6.6;;;1.3;;
67344;SDS011;54230;52.402;6.276;2023-01-01T07:25:00;4.9;;;1.3;;
67344;SDS011;54230;52.402;6.276;2023-01-01T07:30:00;8.4;;;1.4;;
67344;SDS011;54230;52.402;6.276;2023-01-01T07:35:00;4.6;;;1.1;;
67344;SDS011;54230;52.402;6.276;2023-01-01T07:40:00;6.1;;;1.2;;
67344;SDS011;54230;52.402;6.276;2023-01-01T07:45:00;7.0;;;1.1;;
67344;SDS011;54230;52.402;6.276;2023-01-01T07:50:00;5.2;;;1.5;;
67344;SDS011;54230;52.402;6.276;2023-01-01T07:55:00;5.7;;;1.1;;
67344;SDS011;54230;52.402;6.276;2023-01-01T08:00:00;4.1;;;1.0;;
67344;SDS011;54230;52.402;6.276;2023-01-01T08:05:00;5.7;;;1.1;;
67344;SDS011;54230;52.402;6.276;2023-01-01T08:10:00;4.5;;;1.1;;
67344;SDS011;54230;52.402;6.276;2023-01-01T08:15:00;5.0;;;1.2;;
67344;SDS011;54230;52.402;6.276;2023-01-01T08:20:00;6.0;;;1.4;;
67344;SDS011;54230;52.402;6.276;2023-01-01T08:25:00;8.1;;;1.5;;
67344;SDS011;54230;52.402;6.276;2023-01-01T08:30:00;6.4;;;1.1;;
67344;SDS011;54230;52.402;6.276;2023-01-01T08:35:00;6.2;;;1.4;;
67344;SDS011;54230;52.402;6.276;2023-01-01T08:40:00;6.8;;;1.2;;
67344;SDS011;54230;52.402;6.276;2023-01-01T08:45:00;6.9;;;1.4;;
67344;SDS011;54230;52.402;6.276;2023-01-01T08:50:00;5.9;;;1.3;;
67344;SDS011;54230;52.402;6.276;2023-01-01T08:55:00;6.3;;;1.1;;
67344;SDS011;54230;52.402;6.276;2023-01-01T09:00:00;7.3;;;1.1;;
67344;SDS011;54230;52.402;6.276;2023-01-01T09:05:00;6.3;;;1.2;;
67344;SDS011;54230;52.402;6.276;2023-01-01T09:10:00;3.8;;;1.0;;
67344;SDS011;54230;52.402;6.276;2023-01-01T09:15:00;6.2;;;1.3;;
67344;SDS011;54230;52.402;6.276;2023-01-01T09:20:00;6.3;;;1.3;;
67344;SDS011;54230;52.402;6.276;2023-01-01T09:25:00;6.6;;;1.2;;
67344;SDS011;54230;52.402;6.276;2023-01-01T09:30:00;7.8;;;1.3;;
67344;SDS011;54230;52.402;6.276;2023-01-01T09:35:00;10.9;;;1.4;;
67344;SDS011;54230;52.402;6.276;2023-01-01T09:40:00;8.3;;;1.5;;
67344;SDS011;54230;52.402;6.276;2023-01-01T09:45:04;7.1;;;1.2;;
67344;SDS011;54230;52.402;6.276;2023-01-01T09:50:00;5.7;;;1.2;;
67344;SDS011;54230;52.402;6.276;2023-01-01T09:55:01;6.9;;;1.3;;
67344;SDS011;54230;52.402;6.276;2023-01-01T10:00:00;5.2;;;1.4;;
67344;SDS011;54230;52.402;6.276;2023-01-01T10:05:02;9.3;;;1.4;;
67344;SDS011;54230;52.402;6.276;2023-01-01T10:10:02;10.0;;;1.7;;
67344;SDS011;54230;52.402;6.276;2023-01-01T10:15:01;6.8;;;1.4;;
67344;SDS011;54230;52.402;6.276;2023-01-01T10:20:01;8.9;;;1.7;;
67344;SDS011;54230;52.402;6.276;2023-01-01T10:25:00;8.6;;;1.6;;
67344;SDS011;54230;52.402;6.276;2023-01-01T10:30:01;8.4;;;1.6;;
67344;SDS011;54230;52.402;6.276;2023-01-01T10:35:01;8.0;;;1.6;;
67344;SDS011;54230;52.402;6.276;2023-01-01T10:40:00;9.1;;;1.6;;
67344;SDS011;54230;52.402;6.276;2023-01-01T10:45:00;7.2;;;1.9;;
67344;SDS011;54230;52.402;6.276;2023-01-01T10:50:01;8.7;;;1.5;;
67344;SDS011;54230;52.402;6.276;2023-01-01T10:55:00;10.5;;;1.6;;
67344;SDS011;54230;52.402;6.276;2023-01-01T11:00:09;6.7;;;1.3;;
67344;SDS011;54230;52.402;6.276;2023-01-01T11:10:00;8.7;;;1.7;;
67344;SDS011;54230;52.402;6.276;2023-01-01T11:15:00;8.7;;;1.4;;
67344;SDS011;54230;52.402;6.276;2023-01-01T11:20:00;7.7;;;1.7;;
67344;SDS011;54230;52.402;6.276;2023-01-01T11:25:00;7.2;;;1.6;;
67344;SDS011;54230;52.402;6.276;2023-01-01T11:35:00;8.0;;;1.5;;
67344;SDS011;54230;52.402;6.276;2023-01-01T11:40:00;10.7;;;1.9;;
67344;SDS011;54230;52.402;6.276;2023-01-01T11:45:01;7.9;;;1.7;;
67344;SDS011;54230;52.402;6.276;2023-01-01T11:50:01;10.7;;;1.8;;
67344;SDS011;54230;52.402;6.276;2023-01-01T11:55:01;10.0;;;1.8;;
67344;SDS011;54230;52.402;6.276;2023-01-01T12:00:01;9.0;;;1.7;;
67344;SDS011;54230;52.402;6.276;2023-01-01T12:05:02;11.1;;;1.9;;
67344;SDS011;54230;52.402;6.276;2023-01-01T12:10:00;8.6;;;1.7;;
67344;SDS011;54230;52.402;6.276;2023-01-01T12:15:00;9.2;;;1.7;;
67344;SDS011;54230;52.402;6.276;2023-01-01T12:20:01;7.4;;;1.8;;
67344;SDS011;54230;52.402;6.276;2023-01-01T12:25:00;12.8;;;2.3;;
67344;SDS011;54230;52.402;6.276;2023-01-01T12:30:03;9.5;;;2.2;;
67344;SDS011;54230;52.402;6.276;2023-01-01T12:35:02;8.5;;;2.3;;
67344;SDS011;54230;52.402;6.276;2023-01-01T12:45:07;8.7;;;2.1;;
67344;SDS011;54230;52.402;6.276;2023-01-01T12:50:03;10.7;;;2.1;;
67344;SDS011;54230;52.402;6.276;2023-01-01T12:55:07;11.4;;;2.2;;
67344;SDS011;54230;52.402;6.276;2023-01-01T13:00:01;11.0;;;2.5;;
67344;SDS011;54230;52.402;6.276;2023-01-01T13:05:02;9.6;;;2.2;;
67344;SDS011;54230;52.402;6.276;2023-01-01T13:10:02;8.4;;;2.6;;
67344;SDS011;54230;52.402;6.276;2023-01-01T13:15:01;7.9;;;2.3;;
67344;SDS011;54230;52.402;6.276;2023-01-01T13:20:14;12.8;;;2.7;;
67344;SDS011;54230;52.402;6.276;2023-01-01T13:25:02;10.4;;;2.9;;
67344;SDS011;54230;52.402;6.276;2023-01-01T13:30:00;11.3;;;2.9;;
67344;SDS011;54230;52.402;6.276;2023-01-01T13:35:01;9.9;;;2.7;;
67344;SDS011;54230;52.402;6.276;2023-01-01T13:40:00;10.7;;;2.7;;
67344;SDS011;54230;52.402;6.276;2023-01-01T13:45:00;7.7;;;2.6;;
67344;SDS011;54230;52.402;6.276;2023-01-01T13:50:03;10.1;;;2.7;;
67344;SDS011;54230;52.402;6.276;2023-01-01T13:55:04;10.0;;;2.7;;
67344;SDS011;54230;52.402;6.276;2023-01-01T14:00:03;9.0;;;2.8;;
67344;SDS011;54230;52.402;6.276;2023-01-01T14:05:01;12.2;;;2.9;;
67344;SDS011;54230;52.402;6.276;2023-01-01T14:15:12;10.0;;;2.1;;
67344;SDS011;54230;52.402;6.276;2023-01-01T14:20:03;12.8;;;3.0;;
67344;SDS011;54230;52.402;6.276;2023-01-01T14:25:00;13.4;;;2.5;;
67344;SDS011;54230;52.402;6.276;2023-01-01T14:30:00;12.5;;;2.8;;
67344;SDS011;54230;52.402;6.276;2023-01-01T14:35:00;12.4;;;2.8;;
67344;SDS011;54230;52.402;6.276;2023-01-01T14:40:04;12.4;;;2.9;;
67344;SDS011;54230;52.402;6.276;2023-01-01T14:45:00;12.1;;;2.5;;
67344;SDS011;54230;52.402;6.276;2023-01-01T14:50:01;13.0;;;2.9;;
67344;SDS011;54230;52.402;6.276;2023-01-01T14:55:00;12.3;;;2.9;;
67344;SDS011;54230;52.402;6.276;2023-01-01T15:00:00;12.6;;;3.3;;
67344;SDS011;54230;52.402;6.276;2023-01-01T15:10:00;12.1;;;2.9;;
67344;SDS011;54230;52.402;6.276;2023-01-01T15:15:00;11.5;;;2.9;;
67344;SDS011;54230;52.402;6.276;2023-01-01T15:20:01;14.1;;;3.2;;
67344;SDS011;54230;52.402;6.276;2023-01-01T15:25:00;13.8;;;3.3;;
67344;SDS011;54230;52.402;6.276;2023-01-01T15:30:00;15.4;;;5.1;;
67344;SDS011;54230;52.402;6.276;2023-01-01T15:35:00;13.4;;;4.1;;
67344;SDS011;54230;52.402;6.276;2023-01-01T15:40:01;16.4;;;3.9;;
67344;SDS011;54230;52.402;6.276;2023-01-01T15:50:08;14.6;;;5.0;;
67344;SDS011;54230;52.402;6.276;2023-01-01T15:55:00;12.4;;;4.5;;
67344;SDS011;54230;52.402;6.276;2023-01-01T16:00:00;15.1;;;4.5;;
67344;SDS011;54230;52.402;6.276;2023-01-01T16:05:00;21.2;;;8.9;;
67344;SDS011;54230;52.402;6.276;2023-01-01T16:10:00;32.6;;;15.5;;
67344;SDS011;54230;52.402;6.276;2023-01-01T16:15:00;20.5;;;7.8;;
67344;SDS011;54230;52.402;6.276;2023-01-01T16:20:00;31.8;;;16.4;;
67344;SDS011;54230;52.402;6.276;2023-01-01T16:25:01;46.5;;;22.3;;
67344;SDS011;54230;52.402;6.276;2023-01-01T16:30:00;29.9;;;13.0;;
67344;SDS011;54230;52.402;6.276;2023-01-01T16:35:00;25.9;;;9.8;;
67344;SDS011;54230;52.402;6.276;2023-01-01T16:40:00;21.5;;;8.0;;
67344;SDS011;54230;52.402;6.276;2023-01-01T16:45:00;35.3;;;16.1;;
67344;SDS011;54230;52.402;6.276;2023-01-01T16:50:00;27.0;;;10.8;;
67344;SDS011;54230;52.402;6.276;2023-01-01T16:55:00;17.6;;;6.2;;
67344;SDS011;54230;52.402;6.276;2023-01-01T17:00:00;24.8;;;11.5;;
67344;SDS011;54230;52.402;6.276;2023-01-01T17:05:00;18.0;;;7.4;;
67344;SDS011;54230;52.402;6.276;2023-01-01T17:10:00;24.0;;;9.2;;
67344;SDS011;54230;52.402;6.276;2023-01-01T17:15:00;38.6;;;18.1;;
67344;SDS011;54230;52.402;6.276;2023-01-01T17:20:00;99.7;;;53.9;;
67344;SDS011;54230;52.402;6.276;2023-01-01T17:25:00;23.3;;;11.2;;
67344;SDS011;54230;52.402;6.276;2023-01-01T17:30:00;23.3;;;10.6;;
67344;SDS011;54230;52.402;6.276;2023-01-01T17:35:00;23.6;;;9.9;;
67344;SDS011;54230;52.402;6.276;2023-01-01T17:40:00;21.7;;;9.7;;
67344;SDS011;54230;52.402;6.276;2023-01-01T17:45:00;19.1;;;7.1;;
67344;SDS011;54230;52.402;6.276;2023-01-01T17:50:00;13.3;;;4.3;;
67344;SDS011;54230;52.402;6.276;2023-01-01T17:55:00;16.5;;;4.5;;
67344;SDS011;54230;52.402;6.276;2023-01-01T18:00:00;13.2;;;4.1;;
67344;SDS011;54230;52.402;6.276;2023-01-01T18:05:00;18.1;;;5.7;;
67344;SDS011;54230;52.402;6.276;2023-01-01T18:10:00;13.7;;;6.3;;
67344;SDS011;54230;52.402;6.276;2023-01-01T18:15:00;11.1;;;4.1;;
67344;SDS011;54230;52.402;6.276;2023-01-01T18:20:00;10.8;;;3.9;;
67344;SDS011;54230;52.402;6.276;2023-01-01T18:25:00;12.2;;;4.1;;
67344;SDS011;54230;52.402;6.276;2023-01-01T18:30:00;10.7;;;3.2;;
67344;SDS011;54230;52.402;6.276;2023-01-01T18:35:00;14.2;;;4.0;;
67344;SDS011;54230;52.402;6.276;2023-01-01T18:40:00;12.3;;;3.6;;
67344;SDS011;54230;52.402;6.276;2023-01-01T18:45:01;16.8;;;4.3;;
67344;SDS011;54230;52.402;6.276;2023-01-01T18:50:04;14.6;;;4.3;;
67344;SDS011;54230;52.402;6.276;2023-01-01T18:55:02;18.4;;;7.3;;
67344;SDS011;54230;52.402;6.276;2023-01-01T19:00:01;15.0;;;4.9;;
67344;SDS011;54230;52.402;6.276;2023-01-01T19:05:05;12.0;;;4.8;;
67344;SDS011;54230;52.402;6.276;2023-01-01T19:10:00;16.1;;;5.4;;
67344;SDS011;54230;52.402;6.276;2023-01-01T19:15:00;16.5;;;5.8;;
67344;SDS011;54230;52.402;6.276;2023-01-01T19:20:00;18.3;;;5.2;;
67344;SDS011;54230;52.402;6.276;2023-01-01T19:25:00;14.5;;;5.0;;
67344;SDS011;54230;52.402;6.276;2023-01-01T19:30:00;15.0;;;4.8;;
67344;SDS011;54230;52.402;6.276;2023-01-01T19:35:00;13.0;;;5.5;;
67344;SDS011;54230;52.402;6.276;2023-01-01T19:40:00;14.3;;;5.2;;
67344;SDS011;54230;52.402;6.276;2023-01-01T19:45:00;13.6;;;4.9;;
67344;SDS011;54230;52.402;6.276;2023-01-01T19:50:00;12.6;;;4.8;;
67344;SDS011;54230;52.402;6.276;2023-01-01T19:55:00;13.8;;;4.7;;
67344;SDS011;54230;52.402;6.276;2023-01-01T20:00:00;13.2;;;4.8;;
67344;SDS011;54230;52.402;6.276;2023-01-01T20:05:00;12.7;;;4.9;;
67344;SDS011;54230;52.402;6.276;2023-01-01T20:10:00;13.4;;;4.7;;
67344;SDS011;54230;52.402;6.276;2023-01-01T20:15:00;13.4;;;4.7;;
67344;SDS011;54230;52.402;6.276;2023-01-01T20:20:00;11.3;;;4.7;;
67344;SDS011;54230;52.402;6.276;2023-01-01T20:25:00;12.9;;;4.8;;
67344;SDS011;54230;52.402;6.276;2023-01-01T20:30:00;12.2;;;5.1;;
67344;SDS011;54230;52.402;6.276;2023-01-01T20:35:00;12.7;;;5.3;;
67344;SDS011;54230;52.402;6.276;2023-01-01T20:40:00;12.8;;;5.0;;
67344;SDS011;54230;52.402;6.276;2023-01-01T20:45:00;12.4;;;5.2;;
67344;SDS011;54230;52.402;6.276;2023-01-01T20:50:00;12.6;;;5.1;;
67344;SDS011;54230;52.402;6.276;2023-01-01T20:55:00;14.0;;;5.2;;
67344;SDS011;54230;52.402;6.276;2023-01-01T21:00:00;10.2;;;4.9;;
67344;SDS011;54230;52.402;6.276;2023-01-01T21:05:00;12.2;;;4.9;;
67344;SDS011;54230;52.402;6.276;2023-01-01T21:10:00;11.0;;;4.9;;
67344;SDS011;54230;52.402;6.276;2023-01-01T21:15:00;11.8;;;5.2;;
67344;SDS011;54230;52.402;6.276;2023-01-01T21:20:00;9.9;;;5.1;;
67344;SDS011;54230;52.402;6.276;2023-01-01T21:25:00;12.0;;;5.8;;
67344;SDS011;54230;52.402;6.276;2023-01-01T21:30:00;9.5;;;5.1;;
67344;SDS011;54230;52.402;6.276;2023-01-01T21:35:00;9.6;;;5.4;;
67344;SDS011;54230;52.402;6.276;2023-01-01T21:40:04;10.8;;;5.5;;
67344;SDS011;54230;52.402;6.276;2023-01-01T21:45:00;9.8;;;4.9;;
67344;SDS011;54230;52.402;6.276;2023-01-01T21:50:00;10.0;;;4.8;;
67344;SDS011;54230;52.402;6.276;2023-01-01T21:55:00;8.9;;;4.8;;
67344;SDS011;54230;52.402;6.276;2023-01-01T22:00:00;9.8;;;4.5;;
67344;SDS011;54230;52.402;6.276;2023-01-01T22:05:01;9.9;;;4.3;;
67344;SDS011;54230;52.402;6.276;2023-01-01T22:10:00;10.1;;;4.3;;
67344;SDS011;54230;52.402;6.276;2023-01-01T22:15:05;10.6;;;4.7;;
67344;SDS011;54230;52.402;6.276;2023-01-01T22:20:00;10.3;;;4.8;;
67344;SDS011;54230;52.402;6.276;2023-01-01T22:25:01;11.2;;;5.1;;
67344;SDS011;54230;52.402;6.276;2023-01-01T22:30:06;11.9;;;5.7;;
67344;SDS011;54230;52.402;6.276;2023-01-01T22:35:02;11.0;;;5.7;;
67344;SDS011;54230;52.402;6.276;2023-01-01T22:40:00;12.2;;;6.3;;
67344;SDS011;54230;52.402;6.276;2023-01-01T22:45:00;13.0;;;6.2;;
67344;SDS011;54230;52.402;6.276;2023-01-01T22:50:00;13.5;;;6.6;;
67344;SDS011;54230;52.402;6.276;2023-01-01T22:55:00;15.0;;;6.2;;
67344;SDS011;54230;52.402;6.276;2023-01-01T23:00:00;12.8;;;6.4;;
67344;SDS011;54230;52.402;6.276;2023-01-01T23:05:00;13.0;;;6.1;;
67344;SDS011;54230;52.402;6.276;2023-01-01T23:10:00;14.3;;;6.7;;
67344;SDS011;54230;52.402;6.276;2023-01-01T23:15:00;14.1;;;6.3;;
67344;SDS011;54230;52.402;6.276;2023-01-01T23:20:00;14.8;;;6.5;;
67344;SDS011;54230;52.402;6.276;2023-01-01T23:25:00;14.0;;;6.6;;
67344;SDS011;54230;52.402;6.276;2023-01-01T23:30:00;14.4;;;7.2;;
67344;SDS011;54230;52.402;6.276;2023-01-01T23:35:00;14.3;;;6.6;;
67344;SDS011;54230;52.402;6.276;2023-01-01T23:40:00;16.8;;;7.6;;
67344;SDS011;54230;52.402;6.276;2023-01-01T23:45:00;16.4;;;6.8;;
67344;SDS011;54230;52.402;6.276;2023-01-01T23:50:00;13.6;;;7.5;;
67344;SDS011;54230;52.402;6.276;2023-01-01T23:55:00;17.2;;;7.3;;
